Pau, France

12:21 PM CEST on October 25, 2014 (GMT +0200)
Pau / Pyrenees | Change Station
CLOSE
Current Station
Airport
Location: Pau,
Elevation: 607 ft
Nearby Weather Stations

Elev 607 ft 43.38 °N, 0.42 °W | Updated 21 minutes ago

Clear
Clear
68 °F
Feels Like 68 °F
N
2
Wind Variable Wind from Variable

Today
High -- | Low -- °F
--% Chance of Precip.
Yesterday
High -- | Low -- °F
Precip. -- in
8:27 AM 7:03 PM
New Moon, 2% visible
Pressure 30.15 in
Visibility -9999.0 miles
Clouds
Dew Point 54 °F
Humidity 60%
Rainfall 0.00 in
Snow Depth Not available.
UV Not available.
Pollen Not available.
Air Quality Not available.
Flu Activity Not available.
METAR LFBP 251000Z VRB02KT CAVOK 20/12 Q1021 NOSIG

More Conditions Fewer Conditions

Pressure 30.15 in
Visibility -9999.0 miles
Clouds
Dew Point 54 °F
Humidity 60%
Rainfall 0.00 in
Snow Depth Not available.
UV Not available.
Pollen Not available.
Air Quality Not available.
Flu Activity Not available.
METAR LFBP 251000Z VRB02KT CAVOK 20/12 Q1021 NOSIG

More Conditions Fewer Conditions

10-Day Weather Forecast

Almanac

Astronomy

Oct. 25, 2014 Rise Set
Actual Time 8:27 AM CEST 7:03 PM CEST
Civil Twilight 7:58 AM CEST 7:32 PM CEST
Nautical Twilight 7:25 AM CEST 8:05 PM CEST
Astronomical Twilight 6:51 AM CEST 8:38 PM CEST
Moon 9:53 AM CEST 8:12 PM CEST
Length of Visible Light 11h 34m
Length of Day
10h 35m
Tomorrow will be 2m 44s shorter.
New Moon, 2% of the Moon is Illuminated
Today
New Moon
Oct 30
First Quarter
Nov 6
Full
Nov 14
Last Quarter
Nov 22
New

Yesterday's Extremes

Country Highs Country Lows

Community

WunderPhotos

Upload Photos

1,764,806 photos uploaded!

Nearby

Snow Depth

Not available.

Earthquake Activity

City Distance Mag. Time & Date
No recent earthquake activity has been reported nearby.
Minimum magnitude displayed is 2.5.

Coastal Water Temperatures

Place Temperature
No Stations Reporting

Nearby Weather Stations